Time;durP1;ratioP1;P1;durP2;ratioP2;P2;SDS_P1;SDS_P2;PMS_P1;PMS_P2;Temp;Humidity;BMP_temperature;BMP_pressure;BME280_temperature;BME280_humidity;BME280_pressure;Samples;Min_cycle;Max_cycle;Signal;HPM_P1;HPM_P2
2023/05/30 00:00:12;;;;;;;13.60;1.90;;;;;;;14.11;56.02;100631.67;110237;1273;22775;-77
2023/05/30 00:03:04;;;;;;;11.50;1.90;;;;;;;14.03;56.14;100633.83;108088;1270;25960;-76
2023/05/30 00:05:36;;;;;;;12.10;2.30;;;;;;;14.02;56.30;100637.23;107698;1277;22584;-76
2023/05/30 00:08:07;;;;;;;14.00;1.70;;;;;;;14.01;56.33;100639.01;107637;1270;23255;-76
2023/05/30 00:10:38;;;;;;;10.20;1.50;;;;;;;13.98;56.52;100640.19;107709;1278;22570;-76
2023/05/30 00:13:09;;;;;;;14.10;2.00;;;;;;;13.96;56.73;100641.49;107693;1278;22520;-76
2023/05/30 00:15:40;;;;;;;9.60;1.80;;;;;;;13.91;56.74;100650.68;107551;1270;25261;-76
2023/05/30 00:18:11;;;;;;;9.40;2.20;;;;;;;13.89;56.75;100649.42;107689;1277;25488;-77
2023/05/30 00:20:44;;;;;;;12.00;1.90;;;;;;;13.85;56.82;100648.73;107650;1277;22660;-76
2023/05/30 00:23:15;;;;;;;13.10;2.30;;;;;;;13.83;56.89;100647.21;107683;1277;25414;-77
2023/05/30 00:25:46;;;;;;;10.80;1.90;;;;;;;13.81;57.11;100646.17;107658;1277;24242;-77
2023/05/30 00:28:17;;;;;;;8.10;1.70;;;;;;;13.80;57.11;100646.48;107734;1276;24209;-76
2023/05/30 00:30:47;;;;;;;10.30;2.00;;;;;;;13.77;57.11;100640.96;107634;1278;22530;-77
2023/05/30 00:33:18;;;;;;;13.20;2.10;;;;;;;13.72;57.26;100643.32;107675;1277;22517;-76
2023/05/30 00:35:49;;;;;;;14.40;1.90;;;;;;;13.68;57.39;100644.13;107656;1274;22621;-76
2023/05/30 00:38:20;;;;;;;9.30;2.00;;;;;;;13.65;57.26;100640.27;107602;1277;25433;-76
2023/05/30 00:40:51;;;;;;;10.40;2.00;;;;;;;13.62;57.40;100643.59;107623;1271;25516;-76
2023/05/30 00:43:22;;;;;;;11.70;2.00;;;;;;;13.61;57.48;100641.52;110235;1270;24328;-77
2023/05/30 00:45:56;;;;;;;11.10;2.30;;;;;;;13.58;57.54;100644.20;110202;1277;22203;-77
2023/05/30 00:48:27;;;;;;;12.20;2.60;;;;;;;13.57;57.45;100644.03;110255;1271;22920;-77
2023/05/30 00:50:58;;;;;;;12.80;2.40;;;;;;;13.55;57.70;100639.77;110226;1275;22270;-77
2023/05/30 00:53:29;;;;;;;10.70;1.90;;;;;;;13.54;57.77;100639.50;110233;1270;22182;-77
2023/05/30 00:56:00;;;;;;;13.80;2.10;;;;;;;13.53;57.81;100638.38;110231;1271;22190;-77
2023/05/30 00:58:31;;;;;;;15.50;2.30;;;;;;;13.50;57.70;100636.70;110240;1270;22362;-77
2023/05/30 01:01:02;;;;;;;11.70;2.00;;;;;;;13.48;57.71;100632.80;110257;1271;22282;-77
2023/05/30 01:03:34;;;;;;;11.60;2.10;;;;;;;13.48;57.70;100639.21;110245;1274;22360;-77
2023/05/30 01:06:06;;;;;;;9.00;1.90;;;;;;;13.48;57.82;100640.90;110244;1276;22187;-77
2023/05/30 01:08:37;;;;;;;8.80;1.60;;;;;;;13.49;57.72;100641.11;110230;1270;22234;-77
2023/05/30 01:11:21;;;;;;;9.70;2.10;;;;;;;13.49;58.19;100641.67;110234;1276;22230;-77
2023/05/30 01:14:01;;;;;;;8.50;1.50;;;;;;;13.47;57.97;100646.09;110183;1273;22629;-77
2023/05/30 01:16:40;;;;;;;15.70;3.00;;;;;;;13.48;58.08;100646.86;110240;1278;23049;-77
2023/05/30 01:19:46;;;;;;;15.60;2.20;;;;;;;13.48;57.97;100647.33;110237;1278;23059;-77
2023/05/30 01:22:32;;;;;;;9.90;2.00;;;;;;;13.47;57.91;100646.29;110264;1277;22268;-77
2023/05/30 01:25:16;;;;;;;11.00;2.10;;;;;;;13.45;58.03;100646.33;110267;1278;22196;-77
2023/05/30 01:28:02;;;;;;;9.10;1.70;;;;;;;13.45;58.16;100644.01;110261;1278;23476;-76
2023/05/30 01:30:34;;;;;;;13.70;2.00;;;;;;;13.43;57.86;100643.99;110249;1276;22179;-77
2023/05/30 01:33:06;;;;;;;11.90;1.90;;;;;;;13.43;57.87;100648.02;110223;1270;22666;-77
2023/05/30 01:35:37;;;;;;;9.90;1.90;;;;;;;13.43;57.96;100646.34;110215;1273;22668;-77
2023/05/30 01:38:07;;;;;;;14.70;3.00;;;;;;;13.43;58.26;100646.95;110218;1278;22145;-77
2023/05/30 01:40:41;;;;;;;13.50;2.20;;;;;;;13.43;58.17;100643.63;109204;1264;24189;-76
2023/05/30 01:43:24;;;;;;;8.00;2.00;;;;;;;13.43;58.53;100644.80;107689;1270;22542;-76
2023/05/30 01:46:03;;;;;;;14.40;2.20;;;;;;;13.42;58.66;100644.89;110202;1277;22224;-77
2023/05/30 01:48:56;;;;;;;8.40;1.50;;;;;;;13.36;58.57;100650.48;110274;1270;22161;-76
2023/05/30 01:51:38;;;;;;;8.20;1.90;;;;;;;13.28;58.79;100647.21;109602;1277;25441;-77
2023/05/30 01:54:13;;;;;;;10.80;2.00;;;;;;;13.21;59.17;100644.23;110056;1273;22808;-77
2023/05/30 01:56:47;;;;;;;9.10;2.00;;;;;;;13.18;59.15;100642.86;109247;1273;22529;-77
2023/05/30 01:59:20;;;;;;;8.30;1.90;;;;;;;13.15;59.26;100643.27;109832;1277;22561;-77
2023/05/30 02:01:52;;;;;;;13.60;2.10;;;;;;;13.11;59.28;100640.42;110200;1270;22188;-77
2023/05/30 02:04:24;;;;;;;10.20;2.10;;;;;;;13.09;59.42;100644.26;110238;1278;22374;-77
2023/05/30 02:06:55;;;;;;;14.30;3.00;;;;;;;13.04;59.14;100653.14;110223;1264;22215;-77
2023/05/30 02:09:26;;;;;;;10.30;2.30;;;;;;;13.00;59.12;100647.25;110242;1270;22256;-77
2023/05/30 02:11:57;;;;;;;10.30;2.10;;;;;;;12.97;59.50;100649.29;110217;1266;22588;-77
2023/05/30 02:14:28;;;;;;;9.70;1.80;;;;;;;12.92;59.61;100651.52;109355;1277;25595;-77
2023/05/30 02:17:00;;;;;;;15.10;2.40;;;;;;;12.87;59.60;100652.61;107644;1270;25418;-76
2023/05/30 02:19:31;;;;;;;11.70;2.10;;;;;;;12.86;59.82;100650.54;107557;1271;22818;-77
2023/05/30 02:22:01;;;;;;;35.30;2.70;;;;;;;12.83;59.67;100655.02;107623;1278;22609;-77
2023/05/30 02:24:34;;;;;;;12.10;1.70;;;;;;;12.78;59.43;100654.65;107594;1276;22531;-76
2023/05/30 02:27:06;;;;;;;16.60;2.20;;;;;;;12.71;59.52;100660.39;107709;1276;22534;-79
2023/05/30 02:29:38;;;;;;;14.20;2.70;;;;;;;12.67;59.76;100660.88;107743;1255;24250;-79
2023/05/30 02:32:10;;;;;;;11.20;1.90;;;;;;;12.64;59.73;100661.98;107602;1277;22540;-79
2023/05/30 02:34:40;;;;;;;10.80;2.40;;;;;;;12.63;59.81;100665.84;110231;1264;22627;-79
2023/05/30 02:37:12;;;;;;;8.70;1.60;;;;;;;12.59;59.74;100666.07;110235;1270;22431;-79
2023/05/30 02:39:44;;;;;;;9.90;1.40;;;;;;;12.55;59.84;100668.71;110241;1277;22873;-79
2023/05/30 02:42:14;;;;;;;13.90;1.60;;;;;;;12.54;59.97;100667.52;110256;1270;22253;-79
2023/05/30 02:44:45;;;;;;;17.30;1.50;;;;;;;12.53;60.12;100664.04;110221;1270;22292;-79
2023/05/30 02:47:16;;;;;;;14.50;1.80;;;;;;;12.51;59.98;100666.15;110224;1274;23045;-79
2023/05/30 02:49:46;;;;;;;12.00;1.60;;;;;;;12.51;60.11;100663.84;109196;1262;25374;-79
2023/05/30 02:52:19;;;;;;;14.10;1.70;;;;;;;12.48;60.18;100665.41;108119;1270;22570;-79
2023/05/30 02:54:51;;;;;;;12.10;1.80;;;;;;;12.44;60.15;100666.87;107596;1278;22554;-79
2023/05/30 02:57:22;;;;;;;9.40;1.40;;;;;;;12.38;60.39;100675.42;107655;1277;22504;-79
2023/05/30 02:59:53;;;;;;;10.10;1.80;;;;;;;12.31;60.55;100671.63;107656;1276;22540;-79
2023/05/30 03:02:24;;;;;;;8.10;1.50;;;;;;;12.26;60.56;100680.70;107836;1273;22537;-79
2023/05/30 03:04:55;;;;;;;13.20;1.80;;;;;;;12.20;60.84;100683.98;107757;1271;24228;-79
2023/05/30 03:07:26;;;;;;;14.50;1.70;;;;;;;12.12;61.01;100689.67;107719;1270;27868;-79
2023/05/30 03:10:00;;;;;;;10.50;2.00;;;;;;;12.05;61.20;100693.07;107704;1278;25283;-79
2023/05/30 03:12:30;;;;;;;10.20;1.60;;;;;;;11.99;61.30;100695.64;107747;1278;22539;-79
2023/05/30 03:15:04;;;;;;;13.20;1.80;;;;;;;11.95;61.39;100697.80;108095;1273;22551;-79
2023/05/30 03:17:55;;;;;;;6.70;1.40;;;;;;;11.93;61.27;100700.24;108231;1276;22526;-79
2023/05/30 03:20:28;;;;;;;11.60;1.80;;;;;;;11.92;61.46;100704.54;108196;1270;24909;-79
2023/05/30 03:22:59;;;;;;;11.20;1.50;;;;;;;11.89;61.51;100701.39;108251;1276;22604;-79
2023/05/30 03:25:30;;;;;;;14.20;1.50;;;;;;;11.83;61.68;100700.91;108156;1277;24318;-79
2023/05/30 03:28:05;;;;;;;10.50;2.00;;;;;;;11.77;61.84;100704.33;107938;1279;22538;-79
2023/05/30 03:30:37;;;;;;;15.70;2.30;;;;;;;11.70;62.04;100709.73;107809;1276;22535;-80
2023/05/30 03:33:08;;;;;;;12.10;2.10;;;;;;;11.64;62.20;100710.08;107942;1277;22542;-79
2023/05/30 03:35:42;;;;;;;19.10;2.80;;;;;;;11.62;62.39;100707.02;108046;1279;25459;-79
2023/05/30 03:38:15;;;;;;;15.80;1.60;;;;;;;11.62;62.57;100707.39;108085;1279;22705;-80
2023/05/30 03:40:46;;;;;;;10.50;1.70;;;;;;;11.62;62.84;100709.81;107992;1273;24145;-79
2023/05/30 03:43:17;;;;;;;11.70;1.70;;;;;;;11.61;62.95;100713.77;108072;1279;25429;-79
2023/05/30 03:45:47;;;;;;;15.50;1.50;;;;;;;11.61;62.89;100708.72;108088;1262;22526;-80
2023/05/30 03:48:19;;;;;;;15.10;2.20;;;;;;;11.61;63.10;100706.95;108085;1276;23287;-80
2023/05/30 03:50:50;;;;;;;10.10;1.80;;;;;;;11.61;63.29;100708.42;107946;1279;24049;-80
2023/05/30 03:53:20;;;;;;;16.50;2.30;;;;;;;11.62;63.35;100716.11;108037;1274;22538;-79
2023/05/30 03:55:51;;;;;;;10.70;1.50;;;;;;;11.63;63.39;100722.69;108067;1277;22665;-80
2023/05/30 03:58:22;;;;;;;10.70;1.50;;;;;;;11.63;63.48;100723.06;107965;1273;22530;-80
2023/05/30 04:00:52;;;;;;;8.80;1.30;;;;;;;11.67;63.64;100723.29;107850;1279;25429;-79
2023/05/30 04:03:24;;;;;;;11.40;2.10;;;;;;;11.72;63.71;100729.28;107952;1274;22630;-79
2023/05/30 04:05:58;;;;;;;13.10;1.70;;;;;;;11.76;63.86;100731.14;108022;1276;25296;-80
2023/05/30 04:08:30;;;;;;;9.40;1.50;;;;;;;11.79;63.83;100733.73;110024;1273;23451;-80
2023/05/30 04:11:01;;;;;;;12.60;1.50;;;;;;;11.83;64.07;100735.84;108298;1279;24221;-80
2023/05/30 04:13:31;;;;;;;12.70;1.40;;;;;;;11.88;64.17;100734.81;108062;1277;22541;-80
2023/05/30 04:16:03;;;;;;;15.10;2.00;;;;;;;11.93;64.40;100739.35;107969;1279;25213;-79
2023/05/30 04:18:36;;;;;;;12.10;1.60;;;;;;;11.96;64.38;100745.17;108020;1273;22546;-79
2023/05/30 04:21:08;;;;;;;12.30;1.70;;;;;;;12.00;64.30;100745.41;108264;1273;22556;-81
2023/05/30 04:23:41;;;;;;;12.80;1.60;;;;;;;12.05;64.45;100744.55;108295;1273;22681;-81
2023/05/30 04:26:12;;;;;;;10.40;1.60;;;;;;;12.09;64.55;100746.16;108246;1270;23004;-81
2023/05/30 04:28:44;;;;;;;18.10;1.90;;;;;;;12.13;64.54;100749.31;108465;1267;22685;-81
2023/05/30 04:31:15;;;;;;;9.90;1.60;;;;;;;12.17;64.69;100752.34;108262;1278;22670;-82
2023/05/30 04:33:48;;;;;;;12.90;1.90;;;;;;;12.22;64.54;100755.68;108294;1270;22627;-81
2023/05/30 04:36:19;;;;;;;10.80;1.60;;;;;;;12.30;64.62;100759.05;108336;1274;22552;-81
2023/05/30 04:38:52;;;;;;;12.10;1.80;;;;;;;12.36;64.77;100762.43;108241;1273;22523;-81
2023/05/30 04:41:26;;;;;;;14.00;1.50;;;;;;;12.41;64.50;100759.12;108396;1270;22545;-81
2023/05/30 04:44:03;;;;;;;12.60;1.60;;;;;;;12.47;64.76;100764.86;108522;1273;22717;-82
2023/05/30 04:46:46;;;;;;;12.80;1.60;;;;;;;12.54;64.52;100761.16;108473;1271;22568;-78
2023/05/30 04:49:17;;;;;;;10.60;1.30;;;;;;;12.60;64.59;100763.22;108654;1270;25447;-82
2023/05/30 04:51:48;;;;;;;17.20;1.90;;;;;;;12.68;64.51;100765.70;108829;1278;22563;-82
2023/05/30 04:54:19;;;;;;;11.30;1.50;;;;;;;12.73;64.51;100765.15;108715;1274;22520;-82
2023/05/30 04:56:50;;;;;;;10.50;1.70;;;;;;;12.80;64.37;100768.77;108755;1273;22489;-83
2023/05/30 04:59:22;;;;;;;10.60;1.50;;;;;;;12.89;64.33;100769.98;108867;1277;22583;-83
2023/05/30 05:01:53;;;;;;;10.90;1.50;;;;;;;13.00;64.20;100772.98;108815;1270;22540;-83
2023/05/30 05:04:25;;;;;;;9.00;1.50;;;;;;;13.14;63.99;100772.67;108626;1277;25421;-82
2023/05/30 05:06:57;;;;;;;12.00;1.80;;;;;;;13.25;63.65;100773.73;108666;1278;22550;-82
2023/05/30 05:09:28;;;;;;;10.30;1.10;;;;;;;13.37;63.84;100777.14;108704;1271;23044;-82
2023/05/30 05:12:00;;;;;;;13.40;1.50;;;;;;;13.48;63.42;100776.66;108913;1277;22520;-82
2023/05/30 05:14:32;;;;;;;9.70;1.10;;;;;;;13.56;63.19;100779.27;109490;1270;22564;-83
2023/05/30 05:17:03;;;;;;;12.00;1.90;;;;;;;13.61;62.84;100784.00;109457;1271;22535;-79
2023/05/30 05:19:35;;;;;;;12.70;1.40;;;;;;;13.74;62.69;100782.20;108745;1277;22520;-79
2023/05/30 05:22:07;;;;;;;10.40;1.40;;;;;;;13.84;62.33;100781.21;108104;1277;23170;-79
2023/05/30 05:24:37;;;;;;;9.70;1.30;;;;;;;13.93;62.22;100788.23;108111;1270;22755;-79
2023/05/30 05:27:09;;;;;;;9.50;1.40;;;;;;;14.01;61.98;100785.71;108286;1278;25312;-79
2023/05/30 05:29:40;;;;;;;12.20;1.10;;;;;;;14.09;61.86;100790.45;108303;1271;24207;-79
2023/05/30 05:32:11;;;;;;;11.60;1.30;;;;;;;14.16;61.58;100792.02;108352;1277;23908;-79
2023/05/30 05:34:42;;;;;;;13.20;1.90;;;;;;;14.25;61.70;100792.71;108235;1264;23968;-79
2023/05/30 05:37:14;;;;;;;12.40;1.70;;;;;;;14.29;61.36;100798.50;108239;1278;24307;-79
2023/05/30 05:39:44;;;;;;;12.70;1.60;;;;;;;14.35;61.44;100801.29;108251;1267;22687;-80
2023/05/30 05:42:15;;;;;;;12.90;1.50;;;;;;;14.40;61.18;100801.40;108200;1276;22506;-79
2023/05/30 05:44:48;;;;;;;9.40;1.60;;;;;;;14.47;61.19;100804.25;108233;1270;22565;-79
2023/05/30 05:47:19;;;;;;;10.90;1.20;;;;;;;14.55;60.99;100799.23;108188;1276;24212;-79
2023/05/30 05:49:51;;;;;;;7.80;1.20;;;;;;;14.60;60.72;100797.51;108154;1267;22522;-79
2023/05/30 05:52:22;;;;;;;9.60;1.20;;;;;;;14.70;60.78;100800.42;108323;1271;23479;-79
2023/05/30 05:54:53;;;;;;;15.70;1.80;;;;;;;14.81;60.71;100802.39;108125;1277;24214;-79
2023/05/30 05:57:24;;;;;;;12.90;1.90;;;;;;;14.91;60.16;100803.83;108122;1254;25563;-79
2023/05/30 05:59:55;;;;;;;10.60;1.60;;;;;;;14.95;60.03;100803.35;107957;1271;24993;-79
2023/05/30 06:02:26;;;;;;;12.80;1.50;;;;;;;15.02;60.19;100805.33;108186;1277;24194;-80
2023/05/30 06:04:57;;;;;;;17.80;1.80;;;;;;;15.08;59.82;100806.90;108232;1270;22547;-79
2023/05/30 06:07:28;;;;;;;11.60;1.50;;;;;;;15.08;59.40;100808.64;108214;1270;27259;-79
2023/05/30 06:09:59;;;;;;;6.00;1.20;;;;;;;15.06;59.37;100811.55;108147;1278;22536;-79
2023/05/30 06:12:30;;;;;;;12.70;1.50;;;;;;;15.10;59.34;100815.77;107747;1276;23532;-78
2023/05/30 06:15:00;;;;;;;9.40;1.30;;;;;;;15.18;59.14;100819.08;107723;1276;22948;-79
2023/05/30 06:17:31;;;;;;;9.70;1.20;;;;;;;15.26;59.28;100824.02;108198;1270;25286;-79
2023/05/30 06:20:03;;;;;;;11.30;1.40;;;;;;;15.35;58.83;100827.36;108179;1277;22582;-79
2023/05/30 06:22:34;;;;;;;9.80;1.40;;;;;;;15.39;58.85;100828.41;108194;1260;23360;-79
2023/05/30 06:25:06;;;;;;;15.50;1.20;;;;;;;15.41;58.46;100831.87;108125;1271;22589;-79
2023/05/30 06:27:37;;;;;;;15.70;1.60;;;;;;;15.34;58.17;100835.02;108075;1277;25449;-79
2023/05/30 06:30:12;;;;;;;11.60;1.80;;;;;;;15.31;58.35;100829.68;107718;1267;22523;-78
2023/05/30 06:32:43;;;;;;;11.50;1.60;;;;;;;15.33;58.48;100836.92;110238;1270;22261;-79
2023/05/30 06:35:14;;;;;;;20.20;1.80;;;;;;;15.33;58.86;100838.55;110221;1271;22187;-79
2023/05/30 06:37:45;;;;;;;17.90;1.70;;;;;;;15.34;58.46;100845.77;110181;1278;22300;-79
2023/05/30 06:40:15;;;;;;;12.60;1.40;;;;;;;15.33;58.38;100846.48;108194;1278;22485;-79
2023/05/30 06:42:46;;;;;;;11.60;1.50;;;;;;;15.35;58.08;100848.23;108206;1278;23032;-79
2023/05/30 06:45:17;;;;;;;17.00;1.50;;;;;;;15.36;58.11;100845.89;108204;1278;22507;-79
2023/05/30 06:47:48;;;;;;;9.40;1.60;;;;;;;15.37;58.06;100848.05;108195;1270;22527;-79
2023/05/30 06:50:20;;;;;;;13.50;1.10;;;;;;;15.42;58.20;100848.93;107808;1277;22550;-79
2023/05/30 06:52:51;;;;;;;12.60;1.50;;;;;;;15.49;58.10;100849.57;107845;1274;24896;-79
2023/05/30 06:55:21;;;;;;;11.70;1.30;;;;;;;15.54;57.98;100851.90;107711;1274;22764;-79
2023/05/30 06:57:57;;;;;;;12.00;1.60;;;;;;;15.59;57.90;100856.65;107661;1270;23523;-79
2023/05/30 07:00:28;;;;;;;11.20;1.40;;;;;;;15.64;57.91;100859.67;107779;1276;27433;-79
2023/05/30 07:03:00;;;;;;;9.20;1.30;;;;;;;15.73;58.24;100858.97;107726;1271;25589;-78
2023/05/30 07:05:32;;;;;;;8.30;1.30;;;;;;;15.82;57.70;100859.00;107685;1276;25328;-79
2023/05/30 07:08:03;;;;;;;15.60;1.50;;;;;;;15.89;57.67;100856.02;107723;1277;22532;-79
2023/05/30 07:10:33;;;;;;;14.50;1.50;;;;;;;15.99;57.85;100856.00;107719;1270;25960;-79
2023/05/30 07:13:04;;;;;;;9.50;1.10;;;;;;;16.07;57.57;100855.17;107733;1278;25429;-79
2023/05/30 07:15:35;;;;;;;9.30;1.40;;;;;;;16.13;57.35;100859.27;108194;1278;23294;-79
2023/05/30 07:18:06;;;;;;;8.40;1.10;;;;;;;16.21;57.21;100861.58;108218;1267;22523;-79
2023/05/30 07:20:37;;;;;;;11.40;1.20;;;;;;;16.31;56.84;100866.85;108119;1271;22903;-79
2023/05/30 07:23:08;;;;;;;12.40;1.20;;;;;;;16.39;56.45;100865.77;108143;1274;22642;-79
2023/05/30 07:25:39;;;;;;;9.30;1.60;;;;;;;16.43;56.56;100871.98;108077;1270;24078;-79
2023/05/30 07:28:11;;;;;;;12.30;1.30;;;;;;;16.46;56.59;100873.17;108117;1278;22502;-78
2023/05/30 07:30:41;;;;;;;11.50;1.30;;;;;;;16.51;56.60;100868.67;108106;1271;22529;-78
2023/05/30 07:33:12;;;;;;;11.90;1.70;;;;;;;16.54;56.12;100869.77;108078;1278;24336;-78
2023/05/30 07:35:43;;;;;;;13.40;1.40;;;;;;;16.56;56.17;100869.67;108004;1277;23860;-79
2023/05/30 07:38:13;;;;;;;14.40;2.20;;;;;;;16.53;55.63;100875.70;107995;1274;22739;-79
2023/05/30 07:40:45;;;;;;;13.70;1.60;;;;;;;16.53;55.82;100876.83;108186;1276;22555;-79
2023/05/30 07:43:16;;;;;;;11.50;1.30;;;;;;;16.55;55.22;100876.73;108191;1271;25305;-79
2023/05/30 07:45:47;;;;;;;11.30;1.10;;;;;;;16.54;54.92;100875.09;108210;1278;22544;-79
2023/05/30 07:48:17;;;;;;;8.60;1.20;;;;;;;16.56;55.71;100872.98;107742;1271;24314;-79
2023/05/30 07:50:48;;;;;;;12.10;1.40;;;;;;;16.66;55.37;100875.14;107668;1278;22936;-79
2023/05/30 07:53:19;;;;;;;8.30;1.20;;;;;;;16.72;54.39;100877.33;107689;1277;22517;-79
2023/05/30 07:55:49;;;;;;;7.80;1.10;;;;;;;16.72;53.73;100876.50;107661;1278;24272;-79
2023/05/30 07:58:22;;;;;;;13.60;1.30;;;;;;;16.73;53.87;100876.92;107710;1278;25429;-78
2023/05/30 08:00:53;;;;;;;9.30;1.20;;;;;;;16.81;54.30;100873.27;107755;1272;22533;-78
2023/05/30 08:03:25;;;;;;;12.40;1.50;;;;;;;16.90;53.78;100872.73;107795;1267;22523;-78
2023/05/30 08:05:57;;;;;;;5.60;0.90;;;;;;;16.97;53.31;100865.88;107689;1278;22523;-78
2023/05/30 08:08:27;;;;;;;8.20;0.80;;;;;;;17.06;53.28;100865.95;107583;1277;24325;-78
2023/05/30 08:10:58;;;;;;;11.70;1.20;;;;;;;17.13;52.08;100861.80;107704;1273;23082;-78
2023/05/30 08:13:29;;;;;;;7.00;1.20;;;;;;;17.18;52.37;100864.02;107812;1267;22546;-78
2023/05/30 08:16:01;;;;;;;11.70;1.20;;;;;;;17.25;51.26;100865.12;107647;1270;25286;-76
2023/05/30 08:18:32;;;;;;;8.90;1.00;;;;;;;17.29;52.12;100863.34;107636;1278;22539;-78
2023/05/30 08:21:03;;;;;;;12.00;1.00;;;;;;;17.39;52.04;100864.99;107638;1274;22678;-78
2023/05/30 08:23:34;;;;;;;8.50;1.20;;;;;;;17.46;51.46;100863.92;107688;1278;24309;-78
2023/05/30 08:26:06;;;;;;;9.20;1.10;;;;;;;17.50;51.59;100862.67;107676;1277;22798;-78
2023/05/30 08:28:37;;;;;;;7.90;1.40;;;;;;;17.59;51.77;100861.75;107807;1273;24227;-78
2023/05/30 08:31:08;;;;;;;11.60;1.10;;;;;;;17.65;50.77;100860.41;107729;1278;22559;-78
2023/05/30 08:33:39;;;;;;;12.80;1.00;;;;;;;17.68;50.08;100864.13;107699;1278;25458;-78
2023/05/30 08:36:10;;;;;;;4.50;0.60;;;;;;;17.68;49.14;100864.63;107679;1277;24265;-78
2023/05/30 08:38:41;;;;;;;11.90;1.20;;;;;;;17.67;49.28;100861.30;107622;1277;22514;-78
2023/05/30 08:41:13;;;;;;;7.70;0.60;;;;;;;17.72;48.94;100855.08;107826;1255;24249;-78
2023/05/30 08:43:43;;;;;;;12.90;1.00;;;;;;;17.78;49.03;100855.95;107743;1271;22528;-79
2023/05/30 08:46:16;;;;;;;12.90;0.90;;;;;;;17.80;48.53;100861.29;107752;1278;22536;-79
2023/05/30 08:48:48;;;;;;;7.60;0.80;;;;;;;17.83;47.12;100858.83;107750;1278;22582;-78
2023/05/30 08:51:20;;;;;;;6.30;0.80;;;;;;;17.81;46.39;100859.27;107762;1278;22549;-78
2023/05/30 08:53:57;;;;;;;7.20;0.80;;;;;;;17.79;46.10;100859.23;107771;1276;22974;-78
2023/05/30 08:56:35;;;;;;;5.40;0.60;;;;;;;17.84;46.01;100861.28;110262;1277;22749;-78
2023/05/30 08:59:10;;;;;;;5.00;0.60;;;;;;;17.89;45.63;100866.47;110392;1271;22200;-78
2023/05/30 09:01:44;;;;;;;16.40;1.20;;;;;;;17.95;46.39;100863.28;110101;1271;22539;-79
2023/05/30 09:04:17;;;;;;;4.90;0.60;;;;;;;18.01;45.70;100863.78;107711;1270;22518;-78
2023/05/30 09:06:49;;;;;;;12.30;1.50;;;;;;;18.06;45.48;100867.22;107736;1271;22482;-78
2023/05/30 09:09:23;;;;;;;10.90;1.30;;;;;;;18.11;45.09;100870.70;107759;1277;22542;-78
2023/05/30 09:11:54;;;;;;;9.80;0.90;;;;;;;18.12;45.27;100864.80;107741;1274;23954;-78
2023/05/30 09:14:25;;;;;;;5.40;0.80;;;;;;;18.15;44.63;100865.25;107690;1277;22928;-78
2023/05/30 09:16:56;;;;;;;11.90;1.80;;;;;;;18.18;44.35;100870.42;107677;1275;22545;-78
2023/05/30 09:19:28;;;;;;;9.20;1.20;;;;;;;18.19;44.85;100870.85;107726;1271;22572;-78
2023/05/30 09:22:00;;;;;;;10.00;1.00;;;;;;;18.24;44.72;100873.77;107698;1278;22698;-78
2023/05/30 09:24:58;;;;;;;10.60;1.00;;;;;;;18.30;44.25;100874.94;107591;1275;22469;-76
2023/05/30 09:27:32;;;;;;;11.80;0.90;;;;;;;18.29;43.75;100871.71;107784;1278;23775;-78
2023/05/30 09:30:09;;;;;;;7.10;0.90;;;;;;;18.23;44.41;100867.45;110190;1277;22230;-78
2023/05/30 09:32:41;;;;;;;5.10;0.80;;;;;;;18.27;44.76;100866.56;110167;1273;22191;-79
2023/05/30 09:35:12;;;;;;;10.30;1.00;;;;;;;18.34;44.55;100869.78;109825;1277;22612;-78
2023/05/30 09:37:45;;;;;;;11.50;1.50;;;;;;;18.39;44.06;100867.45;107699;1274;22535;-78
2023/05/30 09:40:17;;;;;;;9.40;0.80;;;;;;;18.45;43.32;100865.09;107735;1278;24265;-78
2023/05/30 09:42:51;;;;;;;8.10;1.20;;;;;;;18.49;43.15;100868.29;107720;1278;22537;-78
2023/05/30 09:45:24;;;;;;;8.70;1.20;;;;;;;18.51;42.89;100870.29;107734;1278;22534;-78
2023/05/30 09:47:55;;;;;;;8.00;1.00;;;;;;;18.55;43.34;100865.84;107787;1278;24230;-78
2023/05/30 09:50:26;;;;;;;7.80;0.90;;;;;;;18.61;43.63;100872.05;107727;1272;24182;-78
2023/05/30 09:52:57;;;;;;;16.60;2.10;;;;;;;18.63;42.48;100870.03;107733;1271;25257;-78
2023/05/30 09:55:28;;;;;;;11.60;1.00;;;;;;;18.61;42.46;100871.48;107742;1276;23189;-78
2023/05/30 09:58:00;;;;;;;8.90;1.00;;;;;;;18.62;42.30;100870.55;107690;1268;22639;-78
2023/05/30 10:00:31;;;;;;;7.20;0.80;;;;;;;18.64;41.93;100871.98;107733;1271;24233;-78
2023/05/30 10:03:02;;;;;;;9.60;0.90;;;;;;;18.66;41.59;100871.30;107654;1278;22642;-78
2023/05/30 10:05:37;;;;;;;9.80;0.60;;;;;;;18.72;41.96;100873.70;108146;1275;22546;-80
2023/05/30 10:08:11;;;;;;;13.50;1.20;;;;;;;18.81;40.80;100870.21;108326;1274;22534;-80
2023/05/30 10:10:42;;;;;;;9.00;1.50;;;;;;;18.85;39.88;100876.94;110200;1271;23512;-80
2023/05/30 10:13:13;;;;;;;9.60;1.50;;;;;;;18.89;39.86;100878.76;110202;1277;22448;-79
2023/05/30 10:15:44;;;;;;;7.50;1.10;;;;;;;18.92;38.82;100876.23;110178;1277;22922;-80
2023/05/30 10:18:17;;;;;;;16.50;1.20;;;;;;;18.94;39.15;100876.58;108344;1275;22523;-80
2023/05/30 10:20:48;;;;;;;6.30;0.80;;;;;;;19.00;38.71;100884.02;108258;1276;22541;-80
2023/05/30 10:23:20;;;;;;;5.40;1.00;;;;;;;19.02;38.75;100880.35;108198;1276;22551;-80
2023/05/30 10:25:55;;;;;;;8.20;1.10;;;;;;;19.06;38.50;100880.83;108145;1277;22547;-80
2023/05/30 10:28:29;;;;;;;7.60;1.30;;;;;;;19.07;37.82;100884.74;108337;1266;24220;-80
2023/05/30 10:31:02;;;;;;;6.00;0.70;;;;;;;19.00;36.57;100886.27;108292;1277;22575;-80
2023/05/30 10:33:38;;;;;;;7.60;1.10;;;;;;;18.91;35.89;100878.39;108183;1277;22634;-80
2023/05/30 10:36:09;;;;;;;6.50;0.80;;;;;;;18.83;34.47;100880.13;108216;1273;22536;-80
2023/05/30 10:38:48;;;;;;;7.90;0.90;;;;;;;18.77;35.45;100880.05;108309;1274;22556;-81
2023/05/30 10:41:27;;;;;;;10.00;0.90;;;;;;;18.77;36.29;100873.16;108085;1277;22627;-80
2023/05/30 10:44:12;;;;;;;9.60;0.70;;;;;;;18.82;36.28;100872.21;110104;1271;22351;-80
2023/05/30 10:46:58;;;;;;;7.10;0.70;;;;;;;18.83;37.29;100877.81;106079;1274;22707;-80
2023/05/30 10:49:32;;;;;;;12.90;0.90;;;;;;;18.89;36.89;100879.42;110283;1270;23118;-80
2023/05/30 10:52:05;;;;;;;7.60;0.80;;;;;;;18.91;37.08;100876.17;110184;1277;22159;-80
2023/05/30 10:54:37;;;;;;;5.50;1.10;;;;;;;18.95;37.34;100877.24;110192;1271;22419;-80
2023/05/30 11:00:26;;;;;;;8.00;0.80;;;;;;;19.07;37.22;100870.54;102215;1319;548113;-56
2023/05/30 11:02:57;;;;;;;8.10;0.80;;;;;;;19.11;37.23;100871.81;105284;1286;25335;-56
2023/05/30 11:05:33;;;;;;;7.60;1.10;;;;;;;19.15;37.43;100864.38;105283;1286;25323;-57
2023/05/30 11:08:05;;;;;;;7.90;1.20;;;;;;;19.22;37.50;100857.74;109316;1285;22152;-57
2023/05/30 11:10:36;;;;;;;7.70;1.10;;;;;;;19.25;37.32;100864.77;109273;1286;22995;-58
2023/05/30 11:13:11;;;;;;;8.00;1.00;;;;;;;19.23;37.86;100868.54;105267;1289;5405535;-57
2023/05/30 11:15:46;;;;;;;8.20;1.10;;;;;;;19.24;37.27;100872.30;109465;1284;22216;-56
2023/05/30 11:18:21;;;;;;;9.00;1.10;;;;;;;19.19;37.49;100875.52;109484;1286;22281;-57
2023/05/30 11:20:53;;;;;;;8.70;1.00;;;;;;;19.20;38.22;100867.43;109469;1284;22311;-56
2023/05/30 11:23:27;;;;;;;7.80;0.90;;;;;;;19.31;38.45;100866.95;109461;1283;22199;-57
2023/05/30 11:25:59;;;;;;;13.60;0.90;;;;;;;19.39;37.68;100874.33;109486;1283;22437;-57
2023/05/30 11:28:36;;;;;;;6.30;0.80;;;;;;;19.39;38.12;100873.00;109429;1284;22371;-58
2023/05/30 11:31:19;;;;;;;7.50;0.80;;;;;;;19.40;37.98;100869.95;109441;1289;23057;-58
2023/05/30 11:33:51;;;;;;;10.30;1.10;;;;;;;19.41;37.92;100869.69;109786;1286;22362;-57
2023/05/30 11:36:23;;;;;;;7.90;0.90;;;;;;;19.48;38.30;100869.52;109775;1282;22181;-57
2023/05/30 11:38:55;;;;;;;14.00;3.00;;;;;;;19.51;37.33;100875.58;109757;1282;22181;-57